Time;durP1;ratioP1;P1;durP2;ratioP2;P2;SDS_P1;SDS_P2;PMS_P1;PMS_P2;Temp;Humidity;BMP_temperature;BMP_pressure;BME280_temperature;BME280_humidity;BME280_pressure;Samples;Min_cycle;Max_cycle;Signal;HPM_P1;HPM_P2
2022/05/17 00:01:22;;;;;;;7.50;6.27;;;19.80;94.40;;;;;;5047959;28;20478;-67
2022/05/17 00:03:48;;;;;;;7.63;6.73;;;19.80;94.30;;;;;;5049113;28;20922;-69
2022/05/17 00:06:14;;;;;;;6.60;5.97;;;19.80;94.30;;;;;;5044708;28;20443;-67
2022/05/17 00:08:39;;;;;;;6.97;6.27;;;19.80;94.30;;;;;;5046609;28;20219;-66
2022/05/17 00:11:06;;;;;;;7.70;6.20;;;19.80;94.30;;;;;;5046498;28;20235;-69
2022/05/17 00:13:32;;;;;;;6.53;5.90;;;19.80;94.30;;;;;;5038458;28;20702;-67
2022/05/17 00:15:59;;;;;;;6.40;5.80;;;19.70;94.40;;;;;;5028571;28;20486;-68
2022/05/17 00:18:25;;;;;;;7.10;6.40;;;19.70;94.20;;;;;;5027063;28;21282;-68
2022/05/17 00:20:52;;;;;;;7.17;6.47;;;19.60;94.20;;;;;;5039184;28;20804;-68
2022/05/17 00:23:19;;;;;;;7.37;6.57;;;19.60;94.40;;;;;;5039454;28;20447;-69
2022/05/17 00:25:47;;;;;;;6.63;5.90;;;19.60;94.20;;;;;;5047508;28;20451;-67
2022/05/17 00:28:19;;;;;;;6.53;5.50;;;19.60;94.40;;;;;;5067075;28;20549;-67
2022/05/17 00:30:45;;;;;;;6.70;6.10;;;19.50;94.30;;;;;;5050196;28;20503;-67
2022/05/17 00:33:12;;;;;;;7.23;6.30;;;19.50;94.50;;;;;;5033504;28;20522;-67
2022/05/17 00:35:37;;;;;;;6.40;5.77;;;19.40;94.40;;;;;;5032630;28;20546;-67
2022/05/17 00:38:06;;;;;;;6.43;5.83;;;19.40;94.40;;;;;;5047320;28;20924;-68
2022/05/17 00:40:32;;;;;;;7.57;6.37;;;19.40;94.30;;;;;;5034294;28;20478;-68
2022/05/17 00:42:58;;;;;;;8.23;5.90;;;19.40;94.30;;;;;;5050498;28;20589;-67
2022/05/17 00:45:23;;;;;;;7.07;6.37;;;19.30;94.40;;;;;;5051760;28;20255;-68
2022/05/17 00:47:56;;;;;;;7.50;5.80;;;19.30;94.50;;;;;;5033507;28;20245;-68
2022/05/17 00:50:37;;;;;;;7.80;6.40;;;19.30;94.40;;;;;;5052415;28;20310;-68
2022/05/17 00:53:30;;;;;;;7.57;6.10;;;19.30;94.40;;;;;;5042767;28;20473;-68
2022/05/17 00:56:00;;;;;;;6.00;5.50;;;19.20;94.50;;;;;;5028596;28;20464;-68
2022/05/17 00:58:33;;;;;;;9.23;6.53;;;19.20;94.70;;;;;;5030242;28;20532;-68
2022/05/17 01:01:11;;;;;;;6.10;5.50;;;19.20;94.60;;;;;;5054701;28;20465;-71
2022/05/17 01:03:48;;;;;;;7.17;6.57;;;19.10;95.00;;;;;;5050531;28;20469;-67
2022/05/17 01:06:16;;;;;;;5.70;5.17;;;19.10;94.90;;;;;;5047692;28;20446;-68
2022/05/17 01:08:42;;;;;;;8.50;6.83;;;19.10;94.90;;;;;;5049957;28;20462;-68
2022/05/17 01:11:07;;;;;;;5.90;5.40;;;19.10;94.90;;;;;;5050221;28;20486;-67
2022/05/17 01:16:17;;;;;;;7.07;5.33;;;19.00;95.10;;;;;;5050577;28;20273;-68
2022/05/17 01:18:44;;;;;;;7.83;5.60;;;19.00;95.50;;;;;;5048876;28;20903;-69
2022/05/17 01:21:11;;;;;;;5.47;4.80;;;19.00;95.00;;;;;;5039828;28;20216;-68
2022/05/17 01:23:38;;;;;;;6.80;5.80;;;19.00;95.10;;;;;;5051952;28;20446;-67
2022/05/17 01:26:05;;;;;;;6.33;5.70;;;19.00;95.00;;;;;;5036503;28;20454;-68
2022/05/17 01:28:35;;;;;;;8.93;6.57;;;19.00;95.00;;;;;;5047859;28;20464;-69
2022/05/17 01:31:07;;;;;;;8.83;7.77;;;19.00;95.00;;;;;;5037070;28;20979;-68
2022/05/17 01:33:36;;;;;;;5.90;5.10;;;18.90;95.20;;;;;;5043270;28;20504;-68
2022/05/17 01:36:05;;;;;;;6.93;6.30;;;18.90;95.30;;;;;;5050514;28;20462;-68
2022/05/17 01:38:31;;;;;;;7.50;6.23;;;18.90;95.20;;;;;;5048019;28;20470;-69
2022/05/17 01:40:57;;;;;;;6.40;5.60;;;18.90;95.00;;;;;;5032879;28;20500;-68
2022/05/17 01:43:23;;;;;;;6.83;6.20;;;18.90;95.00;;;;;;5050899;28;20829;-68
2022/05/17 01:45:48;;;;;;;6.90;6.20;;;18.90;95.00;;;;;;5048916;28;20447;-67
2022/05/17 01:48:14;;;;;;;9.60;5.90;;;18.90;95.00;;;;;;5050638;28;20711;-67
2022/05/17 01:50:40;;;;;;;7.47;6.77;;;18.90;94.90;;;;;;5051421;28;20219;-66
2022/05/17 01:53:05;;;;;;;7.17;6.47;;;18.90;94.90;;;;;;5049471;28;20228;-68
2022/05/17 01:55:31;;;;;;;10.50;5.50;;;18.80;94.80;;;;;;5041744;28;20224;-65
2022/05/17 01:57:57;;;;;;;6.40;5.53;;;18.80;94.70;;;;;;5046225;28;20219;-68
2022/05/17 02:00:24;;;;;;;6.40;5.80;;;18.80;94.90;;;;;;5043922;28;20720;-67
2022/05/17 02:02:53;;;;;;;8.80;7.10;;;18.80;94.80;;;;;;5047947;28;20237;-68
2022/05/17 02:05:21;;;;;;;7.20;6.47;;;18.80;94.80;;;;;;5044969;28;20456;-66
2022/05/17 02:07:50;;;;;;;6.37;5.77;;;18.80;94.90;;;;;;5042653;28;21055;-67
2022/05/17 02:10:20;;;;;;;6.73;6.13;;;18.60;94.80;;;;;;5049366;28;20461;-68
2022/05/17 02:12:46;;;;;;;9.20;6.07;;;18.50;95.00;;;;;;5032976;28;20543;-68
2022/05/17 02:15:12;;;;;;;8.93;6.00;;;18.50;95.00;;;;;;5044068;28;20467;-68
2022/05/17 02:17:39;;;;;;;6.40;5.80;;;18.50;95.00;;;;;;5048489;28;20223;-68
2022/05/17 02:20:07;;;;;;;6.60;6.00;;;18.50;95.10;;;;;;5049794;28;20549;-68
2022/05/17 02:22:33;;;;;;;7.57;6.13;;;18.50;95.00;;;;;;5050148;28;20957;-68
2022/05/17 02:24:59;;;;;;;7.50;6.50;;;18.50;95.10;;;;;;5046086;28;20471;-69
2022/05/17 02:27:25;;;;;;;6.07;5.47;;;18.50;94.90;;;;;;5063846;28;20974;-66
2022/05/17 02:29:51;;;;;;;9.10;6.00;;;18.50;94.80;;;;;;5048733;28;20469;-68
2022/05/17 02:32:16;;;;;;;6.57;5.90;;;18.50;94.90;;;;;;5050498;28;20461;-68
2022/05/17 02:34:43;;;;;;;6.30;5.70;;;18.40;94.80;;;;;;5049198;28;20871;-69
2022/05/17 02:37:08;;;;;;;6.57;5.97;;;18.40;94.70;;;;;;5065320;28;20220;-68
2022/05/17 02:39:34;;;;;;;6.20;5.50;;;18.40;94.70;;;;;;5034511;28;20457;-67
2022/05/17 02:42:01;;;;;;;8.77;6.43;;;18.40;94.70;;;;;;5049501;28;20869;-67
2022/05/17 02:44:28;;;;;;;6.27;5.67;;;18.30;94.70;;;;;;5031395;28;20223;-67
2022/05/17 02:46:54;;;;;;;5.73;5.23;;;18.30;94.90;;;;;;5049881;28;20474;-67
2022/05/17 02:49:20;;;;;;;5.37;4.87;;;18.20;94.80;;;;;;5049223;28;20970;-68
2022/05/17 02:51:45;;;;;;;8.53;5.47;;;18.20;94.70;;;;;;5050353;28;20235;-67
2022/05/17 02:54:11;;;;;;;6.50;5.90;;;18.20;94.60;;;;;;5031690;28;20243;-70
2022/05/17 02:56:37;;;;;;;6.60;6.00;;;18.20;94.60;;;;;;5040076;28;20228;-67
2022/05/17 02:59:04;;;;;;;6.40;5.77;;;18.20;94.50;;;;;;5047716;28;20250;-68
2022/05/17 03:01:30;;;;;;;6.00;5.40;;;18.20;94.60;;;;;;5060003;28;20470;-66
2022/05/17 03:03:56;;;;;;;6.10;5.53;;;18.10;94.40;;;;;;5044117;28;20453;-67
2022/05/17 03:06:22;;;;;;;7.33;6.57;;;18.10;94.50;;;;;;5040588;28;20443;-68
2022/05/17 03:08:48;;;;;;;10.53;6.13;;;18.10;94.50;;;;;;5048778;28;20706;-70
2022/05/17 03:11:13;;;;;;;7.27;6.10;;;18.10;94.50;;;;;;5061018;28;20231;-67
2022/05/17 03:13:39;;;;;;;7.60;5.80;;;18.00;94.60;;;;;;5049595;28;20722;-67
2022/05/17 03:16:06;;;;;;;7.33;5.70;;;17.80;94.60;;;;;;5051360;28;20212;-68
2022/05/17 03:18:34;;;;;;;8.50;6.00;;;17.80;94.60;;;;;;5048694;28;20253;-68
2022/05/17 03:21:00;;;;;;;7.03;6.33;;;17.80;94.60;;;;;;5036311;28;20464;-68
2022/05/17 03:23:25;;;;;;;6.70;6.00;;;17.80;94.60;;;;;;5043984;28;21157;-68
2022/05/17 03:25:51;;;;;;;6.03;5.43;;;17.80;94.50;;;;;;5029023;28;20216;-67
2022/05/17 03:28:17;;;;;;;7.33;6.17;;;17.80;94.60;;;;;;5033717;28;20308;-67
2022/05/17 03:30:43;;;;;;;8.27;5.63;;;17.70;94.50;;;;;;5028358;28;20220;-68
2022/05/17 03:33:09;;;;;;;5.90;5.40;;;17.70;94.60;;;;;;5045782;28;20220;-70
2022/05/17 03:35:35;;;;;;;7.27;6.43;;;17.70;94.80;;;;;;5041902;28;20215;-69
2022/05/17 03:38:01;;;;;;;6.50;5.80;;;17.60;94.80;;;;;;5047445;28;20478;-68
2022/05/17 03:40:27;;;;;;;9.60;5.90;;;17.50;95.20;;;;;;5058431;28;20482;-68
2022/05/17 03:42:52;;;;;;;6.00;5.40;;;17.50;95.40;;;;;;5047458;28;20208;-68
2022/05/17 03:45:18;;;;;;;7.27;6.50;;;17.50;95.30;;;;;;5031093;28;20252;-67
2022/05/17 03:47:44;;;;;;;6.93;6.33;;;17.50;95.40;;;;;;5047132;28;20285;-67
2022/05/17 03:50:11;;;;;;;7.13;6.43;;;17.50;95.30;;;;;;5044418;28;20326;-67
2022/05/17 03:52:37;;;;;;;9.23;7.27;;;17.50;95.20;;;;;;5045677;28;20228;-67
2022/05/17 03:55:05;;;;;;;8.37;6.53;;;17.50;95.20;;;;;;5047349;28;20977;-66
2022/05/17 03:57:31;;;;;;;6.50;5.90;;;17.50;95.10;;;;;;5049161;28;20501;-68
2022/05/17 03:59:57;;;;;;;7.47;6.77;;;17.50;95.20;;;;;;5047911;28;20911;-67
2022/05/17 04:02:23;;;;;;;6.93;6.30;;;17.50;95.10;;;;;;5053703;28;20458;-66
2022/05/17 04:04:55;;;;;;;8.80;6.40;;;17.50;95.20;;;;;;5052478;28;20255;-66
2022/05/17 04:07:22;;;;;;;6.33;5.73;;;17.50;95.10;;;;;;5052241;28;20973;-67
2022/05/17 04:09:48;;;;;;;10.40;6.20;;;17.50;95.40;;;;;;5051018;28;20446;-71
2022/05/17 04:12:14;;;;;;;7.87;6.00;;;17.50;95.10;;;;;;5052879;28;20955;-68
2022/05/17 04:14:40;;;;;;;10.07;6.70;;;17.50;95.10;;;;;;5051747;28;21001;-68
2022/05/17 04:17:06;;;;;;;9.57;6.30;;;17.60;95.00;;;;;;5051041;28;20497;-69
2022/05/17 04:19:32;;;;;;;7.00;6.30;;;17.50;95.20;;;;;;5044764;28;20470;-68
2022/05/17 04:21:58;;;;;;;6.50;5.80;;;17.60;95.00;;;;;;5047190;28;20706;-68
2022/05/17 04:24:26;;;;;;;6.47;5.30;;;17.50;94.90;;;;;;5051098;28;20220;-68
2022/05/17 04:26:55;;;;;;;7.00;6.30;;;17.50;95.50;;;;;;5067125;28;20454;-68
2022/05/17 04:29:21;;;;;;;7.67;6.00;;;17.50;95.60;;;;;;5043009;28;20800;-68
2022/05/17 04:31:47;;;;;;;5.83;5.33;;;17.50;95.60;;;;;;5036230;28;20978;-66
2022/05/17 04:34:13;;;;;;;6.80;6.20;;;17.50;95.40;;;;;;5036560;28;20465;-70
2022/05/17 04:36:40;;;;;;;11.33;6.33;;;17.50;95.30;;;;;;5051493;28;20243;-68
2022/05/17 04:39:06;;;;;;;6.37;5.13;;;17.50;95.30;;;;;;5050117;28;20990;-67
2022/05/17 04:41:32;;;;;;;6.43;5.70;;;17.40;96.10;;;;;;5025875;28;20525;-67
2022/05/17 04:43:57;;;;;;;6.80;6.10;;;17.30;96.40;;;;;;5053786;28;20866;-68
2022/05/17 04:46:23;;;;;;;8.00;5.70;;;17.30;96.70;;;;;;5048549;28;20216;-69
2022/05/17 04:48:49;;;;;;;5.50;4.80;;;17.20;97.20;;;;;;5048077;28;20227;-68
2022/05/17 04:51:15;;;;;;;6.90;5.77;;;17.20;97.30;;;;;;5046884;28;20573;-68
2022/05/17 04:53:44;;;;;;;5.97;5.40;;;17.20;97.20;;;;;;5038419;28;20224;-67
2022/05/17 04:56:11;;;;;;;9.40;6.77;;;17.30;96.80;;;;;;5040216;28;20216;-67
2022/05/17 04:58:38;;;;;;;6.30;5.70;;;17.30;96.70;;;;;;5038492;28;20955;-68
2022/05/17 05:01:04;;;;;;;7.30;5.33;;;17.30;96.50;;;;;;5030751;28;20971;-67
2022/05/17 05:03:31;;;;;;;6.20;5.47;;;17.40;96.60;;;;;;5034069;28;20994;-68
2022/05/17 05:05:56;;;;;;;6.10;5.50;;;17.40;96.70;;;;;;5048998;28;20454;-66
2022/05/17 05:08:24;;;;;;;6.80;6.10;;;17.50;96.90;;;;;;5065603;28;21044;-67
2022/05/17 05:10:50;;;;;;;6.73;6.03;;;17.50;97.00;;;;;;5049824;28;20458;-68
2022/05/17 05:13:20;;;;;;;8.07;6.33;;;17.50;97.10;;;;;;5047128;28;20693;-67
2022/05/17 05:15:47;;;;;;;6.60;5.90;;;17.60;96.60;;;;;;5030038;28;20222;-67
2022/05/17 05:18:14;;;;;;;7.67;6.00;;;17.60;96.60;;;;;;5043374;28;20470;-64
2022/05/17 05:20:40;;;;;;;7.63;6.33;;;17.60;96.80;;;;;;5039516;28;20467;-66
2022/05/17 05:23:07;;;;;;;8.33;6.87;;;17.60;96.70;;;;;;5051094;28;20444;-68
2022/05/17 05:25:34;;;;;;;7.87;6.20;;;17.60;96.70;;;;;;5050561;28;20549;-67
2022/05/17 05:28:01;;;;;;;7.70;5.73;;;17.70;97.50;;;;;;5040735;28;20560;-70
2022/05/17 05:30:28;;;;;;;7.10;6.40;;;17.70;97.40;;;;;;5053583;28;20446;-68
2022/05/17 05:32:55;;;;;;;8.70;6.00;;;17.70;97.50;;;;;;5034584;28;20868;-67
2022/05/17 05:35:21;;;;;;;6.77;5.77;;;17.80;97.30;;;;;;5031183;28;20454;-68
2022/05/17 05:37:48;;;;;;;10.87;6.60;;;17.80;97.50;;;;;;5033463;28;20541;-69
2022/05/17 05:40:14;;;;;;;7.63;6.77;;;17.80;97.30;;;;;;5039217;28;20233;-69
2022/05/17 05:42:41;;;;;;;8.17;6.47;;;17.80;97.00;;;;;;5048578;28;20473;-68
2022/05/17 05:45:08;;;;;;;7.70;5.90;;;17.80;97.00;;;;;;5037492;28;20526;-68
2022/05/17 05:47:34;;;;;;;9.73;6.60;;;17.90;97.30;;;;;;5035314;28;20467;-68
2022/05/17 05:50:00;;;;;;;7.67;6.90;;;17.90;97.20;;;;;;5031025;28;20466;-69
2022/05/17 05:52:27;;;;;;;7.23;5.83;;;18.00;97.50;;;;;;5042396;28;20227;-67
2022/05/17 05:54:52;;;;;;;7.23;6.53;;;18.00;97.30;;;;;;5040349;28;20462;-68
2022/05/17 05:57:18;;;;;;;8.40;5.87;;;18.00;97.20;;;;;;5042224;28;20228;-69
2022/05/17 05:59:44;;;;;;;6.03;5.40;;;18.10;97.40;;;;;;5041962;28;20238;-68
2022/05/17 06:02:11;;;;;;;6.63;6.13;;;18.10;97.40;;;;;;5061021;28;20251;-68
2022/05/17 06:04:37;;;;;;;6.63;5.90;;;18.10;97.40;;;;;;5029158;28;20224;-68
2022/05/17 06:07:04;;;;;;;6.40;5.80;;;18.20;97.50;;;;;;5046129;28;20460;-67
2022/05/17 06:09:30;;;;;;;6.23;5.63;;;18.20;97.50;;;;;;5036859;28;20513;-68
2022/05/17 06:11:56;;;;;;;7.57;5.90;;;18.30;97.50;;;;;;5038342;28;20463;-70
2022/05/17 06:14:21;;;;;;;6.93;5.93;;;18.30;97.60;;;;;;5054066;28;20243;-68
2022/05/17 06:16:51;;;;;;;7.40;6.07;;;18.40;97.70;;;;;;5045235;28;20226;-68
2022/05/17 06:19:17;;;;;;;7.93;6.77;;;18.40;97.60;;;;;;5038751;28;20230;-68
2022/05/17 06:21:44;;;;;;;6.80;6.03;;;18.50;98.40;;;;;;5032145;28;20534;-68
2022/05/17 06:24:10;;;;;;;7.63;6.60;;;18.50;98.20;;;;;;5035135;28;20824;-68
2022/05/17 06:26:36;;;;;;;6.07;5.47;;;18.60;98.60;;;;;;5040257;28;20462;-67
2022/05/17 06:29:02;;;;;;;5.30;4.87;;;18.70;99.20;;;;;;5035875;28;20527;-67
2022/05/17 06:31:28;;;;;;;6.13;5.53;;;18.80;99.10;;;;;;5038843;28;20923;-69
2022/05/17 06:33:54;;;;;;;8.03;5.73;;;18.80;98.90;;;;;;5034681;28;20447;-68
2022/05/17 06:36:19;;;;;;;6.27;5.67;;;18.90;98.70;;;;;;5035477;28;20723;-70
2022/05/17 06:38:45;;;;;;;6.80;5.43;;;18.90;98.90;;;;;;5040404;28;20228;-67
2022/05/17 06:41:11;;;;;;;7.27;5.40;;;19.00;99.10;;;;;;5026317;28;20315;-68
2022/05/17 06:43:39;;;;;;;6.40;5.80;;;19.10;99.20;;;;;;5035178;28;20710;-68
2022/05/17 06:46:06;;;;;;;7.43;5.87;;;19.20;99.50;;;;;;5043290;28;20451;-70
2022/05/17 06:48:32;;;;;;;5.57;5.07;;;19.20;99.70;;;;;;5036898;28;20463;-68
2022/05/17 06:51:15;;;;;;;6.30;5.70;;;19.30;99.70;;;;;;5041588;28;20580;-67
2022/05/17 06:53:41;;;;;;;5.50;5.00;;;19.40;99.60;;;;;;5034373;28;20455;-67
2022/05/17 06:56:07;;;;;;;6.90;6.20;;;19.50;99.70;;;;;;5036765;28;20965;-69
2022/05/17 06:58:33;;;;;;;6.53;5.83;;;19.50;99.60;;;;;;5042210;28;20220;-70
2022/05/17 07:00:59;;;;;;;7.20;5.70;;;19.60;99.70;;;;;;5040913;28;20243;-72
2022/05/17 07:03:25;;;;;;;6.50;5.80;;;19.60;99.60;;;;;;5037023;28;20254;-71
2022/05/17 07:05:51;;;;;;;5.70;5.30;;;19.70;99.80;;;;;;5033897;28;20486;-71
2022/05/17 07:08:17;;;;;;;6.30;5.70;;;19.70;99.90;;;;;;5031582;28;20220;-71
2022/05/17 07:13:27;;;;;;;6.60;5.90;;;19.90;99.90;;;;;;5032434;28;20943;-71
2022/05/17 07:15:53;;;;;;;7.50;6.50;;;19.90;99.90;;;;;;5033473;28;20451;-70
2022/05/17 07:18:24;;;;;;;6.50;5.80;;;20.00;99.90;;;;;;5041480;28;20603;-72
2022/05/17 07:20:50;;;;;;;6.90;5.13;;;20.10;99.90;;;;;;5033883;28;20466;-70
2022/05/17 07:23:16;;;;;;;5.47;4.97;;;20.10;99.90;;;;;;5036157;28;20447;-72
2022/05/17 07:25:45;;;;;;;5.83;5.23;;;20.20;99.90;;;;;;5023389;28;20458;-72
2022/05/17 07:28:16;;;;;;;5.87;5.13;;;20.30;99.80;;;;;;5032181;28;20549;-72
2022/05/17 07:30:43;;;;;;;5.77;4.67;;;20.30;99.70;;;;;;5038993;28;20521;-73
2022/05/17 07:33:09;;;;;;;4.83;4.43;;;20.40;99.90;;;;;;5042207;28;20450;-70
2022/05/17 07:35:34;;;;;;;7.37;5.07;;;20.60;99.90;;;;;;5042803;28;20446;-69
2022/05/17 07:38:01;;;;;;;4.63;4.23;;;20.60;99.90;;;;;;5048593;28;20395;-69
2022/05/17 07:40:27;;;;;;;4.67;4.20;;;20.70;99.90;;;;;;5046453;28;20240;-69
2022/05/17 07:42:54;;;;;;;11.33;4.93;;;20.90;99.80;;;;;;5038277;28;20463;-69
2022/05/17 07:45:20;;;;;;;5.73;4.20;;;20.90;99.30;;;;;;5044744;28;20261;-69
2022/05/17 07:47:46;;;;;;;5.20;4.33;;;20.90;99.10;;;;;;5049045;28;20545;-69
2022/05/17 07:50:12;;;;;;;6.30;3.73;;;21.00;98.70;;;;;;5044285;28;20223;-68
2022/05/17 07:52:38;;;;;;;5.83;3.43;;;21.10;98.60;;;;;;5044357;28;20757;-69
2022/05/17 07:55:05;;;;;;;4.50;3.57;;;21.20;98.60;;;;;;5045825;28;20542;-68
2022/05/17 07:57:31;;;;;;;4.27;3.90;;;21.20;98.60;;;;;;5042058;28;20376;-68
2022/05/17 07:59:56;;;;;;;4.10;3.70;;;21.30;98.90;;;;;;5045187;28;20950;-70
2022/05/17 08:02:22;;;;;;;6.27;3.73;;;21.50;98.90;;;;;;5048936;28;20314;-69
2022/05/17 08:04:48;;;;;;;4.10;3.57;;;21.60;98.80;;;;;;5047814;28;20258;-67
2022/05/17 08:07:14;;;;;;;3.43;3.13;;;21.60;98.50;;;;;;5042080;28;20215;-68
2022/05/17 08:09:40;;;;;;;3.83;2.90;;;21.70;98.50;;;;;;5042709;28;20223;-69
2022/05/17 08:12:08;;;;;;;3.17;2.97;;;21.80;98.20;;;;;;5039368;28;20220;-68
2022/05/17 08:14:35;;;;;;;3.83;3.53;;;21.90;97.90;;;;;;5040035;28;20219;-69
2022/05/17 08:17:01;;;;;;;3.83;3.43;;;22.00;98.10;;;;;;5041720;28;20461;-68
2022/05/17 08:19:27;;;;;;;5.63;3.27;;;22.10;98.00;;;;;;5041447;28;20592;-69
2022/05/17 08:21:53;;;;;;;4.70;3.20;;;22.10;97.60;;;;;;5047175;28;20541;-68
2022/05/17 08:24:19;;;;;;;6.73;4.23;;;22.20;97.50;;;;;;5042034;28;20220;-67
2022/05/17 08:29:28;;;;;;;2.70;2.50;;;22.40;97.20;;;;;;5045382;28;20230;-69
2022/05/17 08:34:38;;;;;;;4.63;2.97;;;22.60;96.10;;;;;;5036374;28;20600;-71
2022/05/17 08:37:04;;;;;;;2.30;2.10;;;22.50;95.80;;;;;;5036750;28;20449;-69
2022/05/17 08:39:31;;;;;;;4.10;2.57;;;22.60;96.00;;;;;;5037808;28;20713;-69
2022/05/17 08:42:08;;;;;;;3.77;2.20;;;22.70;95.70;;;;;;5037237;28;20692;-69
2022/05/17 08:44:44;;;;;;;3.20;2.70;;;22.90;95.90;;;;;;5045892;28;21031;-67
2022/05/17 08:47:21;;;;;;;2.50;2.30;;;23.10;95.70;;;;;;5042260;28;20454;-67
2022/05/17 08:49:53;;;;;;;4.60;2.87;;;23.10;95.40;;;;;;5060935;28;20507;-71
2022/05/17 08:52:22;;;;;;;2.90;2.10;;;23.20;95.10;;;;;;5047618;28;21044;-68
2022/05/17 08:55:01;;;;;;;3.93;2.33;;;23.20;94.70;;;;;;5033254;28;20443;-72
2022/05/17 08:57:42;;;;;;;2.00;1.90;;;23.30;94.80;;;;;;5034216;28;20502;-68
2022/05/17 09:00:17;;;;;;;4.10;2.33;;;23.40;94.80;;;;;;5036859;28;20466;-68
2022/05/17 09:03:03;;;;;;;4.80;3.20;;;23.50;94.70;;;;;;5035654;28;20462;-68
2022/05/17 09:05:48;;;;;;;2.50;1.57;;;23.60;94.40;;;;;;5039810;28;20482;-69
2022/05/17 09:08:36;;;;;;;2.97;2.07;;;23.80;93.80;;;;;;5036287;28;21182;-69
2022/05/17 09:11:04;;;;;;;3.67;2.47;;;23.80;93.40;;;;;;5044672;28;20877;-69
2022/05/17 09:13:51;;;;;;;3.77;1.90;;;23.90;93.50;;;;;;5044062;28;20447;-67
2022/05/17 09:16:17;;;;;;;4.07;2.20;;;24.00;93.30;;;;;;5041570;28;20464;-69
2022/05/17 09:18:46;;;;;;;2.67;2.13;;;24.10;93.20;;;;;;5039249;28;20474;-69
2022/05/17 09:21:32;;;;;;;3.73;2.00;;;24.20;93.00;;;;;;5041555;28;20261;-69
2022/05/17 09:24:02;;;;;;;3.07;2.20;;;24.30;93.30;;;;;;5046997;28;20541;-70
2022/05/17 09:26:29;;;;;;;3.33;2.20;;;24.40;92.80;;;;;;5035464;28;21045;-70
2022/05/17 09:29:04;;;;;;;4.30;2.60;;;24.60;92.60;;;;;;5032537;28;20458;-70
2022/05/17 09:31:35;;;;;;;2.67;1.97;;;24.70;92.20;;;;;;5037811;28;20518;-67
2022/05/17 09:34:08;;;;;;;2.67;1.90;;;24.80;91.80;;;;;;5030308;28;20477;-69
2022/05/17 09:36:52;;;;;;;2.07;1.87;;;24.80;91.70;;;;;;5044227;28;20457;-69
2022/05/17 09:39:23;;;;;;;1.80;1.70;;;24.90;91.20;;;;;;5027126;28;20470;-70
2022/05/17 09:41:50;;;;;;;3.20;1.80;;;25.00;91.30;;;;;;5032436;28;21001;-69
2022/05/17 09:44:21;;;;;;;2.20;2.00;;;25.10;91.30;;;;;;5043723;28;20462;-69
2022/05/17 09:46:49;;;;;;;2.07;1.80;;;25.20;91.20;;;;;;5060091;28;20458;-70
2022/05/17 09:55:24;;;;;;;2.00;1.83;;;25.50;90.20;;;;;;5055370;28;20463;-68
2022/05/17 09:58:11;;;;;;;2.40;1.60;;;25.60;90.40;;;;;;5032683;28;20451;-69
2022/05/17 10:00:41;;;;;;;2.00;1.73;;;25.60;90.10;;;;;;5036419;28;20484;-69
2022/05/17 10:03:25;;;;;;;2.40;1.87;;;25.70;89.60;;;;;;5042637;28;20446;-69
2022/05/17 10:05:58;;;;;;;4.90;1.80;;;25.70;90.00;;;;;;5052586;28;20451;-69
2022/05/17 10:08:34;;;;;;;1.80;1.70;;;25.80;89.50;;;;;;5052748;28;20457;-68
2022/05/17 10:11:22;;;;;;;2.90;1.60;;;25.80;88.60;;;;;;5041319;28;20458;-69
2022/05/17 10:14:07;;;;;;;1.87;1.77;;;25.90;88.80;;;;;;5036308;28;20458;-70
2022/05/17 10:16:50;;;;;;;4.40;1.80;;;26.00;89.00;;;;;;5024636;28;20453;-70
2022/05/17 10:19:44;;;;;;;2.43;1.90;;;26.00;89.20;;;;;;5037594;28;20485;-72
2022/05/17 10:22:26;;;;;;;4.47;2.00;;;26.20;87.80;;;;;;5033995;28;20450;-69
2022/05/17 10:25:21;;;;;;;1.80;1.70;;;26.30;87.80;;;;;;5032892;28;20470;-69
2022/05/17 10:27:54;;;;;;;2.17;2.07;;;26.40;86.80;;;;;;5031185;28;20508;-69
2022/05/17 10:30:41;;;;;;;4.10;2.17;;;26.50;87.30;;;;;;5035685;28;20601;-69
2022/05/17 10:33:19;;;;;;;2.50;2.30;;;26.60;87.20;;;;;;5038030;28;20597;-69
2022/05/17 10:35:55;;;;;;;1.70;1.60;;;26.80;86.10;;;;;;5035596;28;20450;-69
2022/05/17 10:38:28;;;;;;;5.50;2.10;;;26.90;85.90;;;;;;5050016;28;20239;-69
2022/05/17 10:40:55;;;;;;;2.07;1.87;;;26.90;86.40;;;;;;5034400;28;20560;-69
2022/05/17 10:43:28;;;;;;;2.13;1.93;;;27.00;86.20;;;;;;5048469;28;20291;-72
2022/05/17 10:46:18;;;;;;;2.00;1.80;;;27.20;83.70;;;;;;5037959;28;20734;-69
2022/05/17 10:49:28;;;;;;;2.07;1.93;;;27.30;82.60;;;;;;5042484;28;20227;-67
2022/05/17 10:52:02;;;;;;;4.50;2.25;;;27.50;83.40;;;;;;5038046;28;20239;-68
2022/05/17 10:55:07;;;;;;;2.90;1.58;;;27.60;84.10;;;;;;5033203;28;20223;-71
2022/05/17 10:57:58;;;;;;;3.63;2.10;;;27.70;82.70;;;;;;5038883;28;20478;-70
2022/05/17 11:00:40;;;;;;;2.20;2.00;;;27.80;82.90;;;;;;5038645;28;20683;-71
2022/05/17 11:03:20;;;;;;;2.70;1.73;;;27.90;82.40;;;;;;5039376;28;20223;-70
2022/05/17 11:06:08;;;;;;;2.47;2.13;;;28.00;83.20;;;;;;5039429;28;20794;-69
2022/05/17 11:08:55;;;;;;;3.20;2.20;;;28.20;82.20;;;;;;5033855;28;20338;-72
2022/05/17 11:12:04;;;;;;;1.90;1.80;;;28.30;81.00;;;;;;5039300;28;20225;-68
2022/05/17 11:14:40;;;;;;;2.90;2.38;;;28.30;82.20;;;;;;5040125;28;20227;-68
2022/05/17 11:17:44;;;;;;;2.15;2.05;;;28.30;82.40;;;;;;5031453;28;20300;-68
2022/05/17 11:20:18;;;;;;;4.10;2.10;;;28.30;82.40;;;;;;5032028;28;20227;-69
2022/05/17 11:22:53;;;;;;;3.65;2.40;;;28.30;81.50;;;;;;5032593;28;20239;-69
2022/05/17 11:25:49;;;;;;;4.82;2.58;;;28.30;81.50;;;;;;5053276;28;20679;-70
2022/05/17 11:28:37;;;;;;;2.97;2.67;;;28.30;81.10;;;;;;5038380;28;20234;-70
2022/05/17 11:31:20;;;;;;;4.40;2.13;;;28.40;81.40;;;;;;5041291;28;20223;-69
2022/05/17 11:33:45;;;;;;;2.80;2.25;;;28.50;81.30;;;;;;5042261;28;20284;-69
2022/05/17 11:36:30;;;;;;;4.07;2.50;;;28.40;80.80;;;;;;5034156;28;20219;-71
2022/05/17 11:38:56;;;;;;;2.65;2.45;;;28.30;80.00;;;;;;5035134;28;20305;-69
2022/05/17 11:41:43;;;;;;;3.05;2.58;;;28.20;80.30;;;;;;5045237;28;20247;-68
2022/05/17 11:44:18;;;;;;;2.80;2.60;;;28.30;81.30;;;;;;5039496;28;20223;-71
2022/05/17 11:46:49;;;;;;;2.50;2.30;;;28.40;80.80;;;;;;5039296;28;20218;-70
2022/05/17 11:49:34;;;;;;;2.35;2.05;;;28.30;80.00;;;;;;5038065;28;20680;-69
2022/05/17 11:51:59;;;;;;;2.22;1.88;;;28.30;80.70;;;;;;5039098;28;20216;-71
2022/05/17 11:54:49;;;;;;;3.67;2.35;;;28.30;79.30;;;;;;5041304;28;20281;-71
2022/05/17 11:57:17;;;;;;;4.32;2.05;;;28.20;78.10;;;;;;5032763;28;20676;-72
2022/05/17 11:59:44;;;;;;;2.70;2.10;;;28.20;79.40;;;;;;5013636;28;20293;-67
2022/05/17 12:02:13;;;;;;;2.55;1.98;;;28.40;79.60;;;;;;5030675;28;20318;-73
2022/05/17 12:04:45;;;;;;;3.92;1.98;;;28.60;79.50;;;;;;5031716;28;20237;-70
2022/05/17 12:07:27;;;;;;;1.92;1.83;;;28.70;78.60;;;;;;5029743;28;20247;-72
2022/05/17 12:10:10;;;;;;;4.53;3.55;;;28.70;77.10;;;;;;5034150;28;20253;-69
2022/05/17 12:12:47;;;;;;;2.50;1.77;;;28.60;76.20;;;;;;5030628;28;20227;-68
2022/05/17 12:15:26;;;;;;;2.45;1.70;;;28.60;75.90;;;;;;5040537;28;20223;-69
2022/05/17 12:18:04;;;;;;;1.67;1.40;;;28.40;75.30;;;;;;5029808;28;20605;-70
2022/05/17 12:20:54;;;;;;;2.05;1.50;;;28.50;75.20;;;;;;5029508;28;20704;-68
2022/05/17 12:23:31;;;;;;;2.28;2.00;;;28.60;75.50;;;;;;5054262;28;20220;-68
2022/05/17 12:26:03;;;;;;;1.70;1.60;;;28.60;74.70;;;;;;5054911;28;20223;-69
2022/05/17 12:28:37;;;;;;;1.70;1.60;;;28.60;74.60;;;;;;5042740;28;20223;-72
2022/05/17 12:31:08;;;;;;;1.92;1.73;;;28.60;75.20;;;;;;5052094;28;20286;-68
2022/05/17 12:33:39;;;;;;;1.95;1.80;;;28.60;73.90;;;;;;5044535;28;20246;-71
2022/05/17 12:36:21;;;;;;;2.53;1.80;;;28.60;74.30;;;;;;5043719;28;20274;-69
2022/05/17 12:44:46;;;;;;;1.48;1.38;;;28.50;74.30;;;;;;5041336;28;20268;-69
2022/05/17 12:47:37;;;;;;;1.52;1.42;;;28.50;73.90;;;;;;5040967;28;20216;-69
2022/05/17 12:50:04;;;;;;;2.47;1.45;;;28.50;74.80;;;;;;5024431;28;20248;-68
2022/05/17 12:52:34;;;;;;;1.67;1.58;;;28.50;72.20;;;;;;5043898;28;20687;-69
2022/05/17 12:55:07;;;;;;;1.45;1.23;;;28.40;72.10;;;;;;5043385;28;20231;-69
2022/05/17 12:57:35;;;;;;;1.38;1.20;;;28.30;72.60;;;;;;5023359;28;20243;-69
2022/05/17 13:00:24;;;;;;;1.40;1.30;;;28.30;72.30;;;;;;5043464;28;20235;-69
2022/05/17 13:03:01;;;;;;;1.20;1.20;;;28.60;71.50;;;;;;5045246;28;20237;-69
2022/05/17 13:05:40;;;;;;;1.55;1.40;;;28.90;70.10;;;;;;5046400;28;20213;-70
2022/05/17 13:08:10;;;;;;;1.20;1.20;;;29.20;70.30;;;;;;5042343;28;20216;-69
2022/05/17 13:10:38;;;;;;;1.90;1.40;;;29.20;70.70;;;;;;5048256;28;20219;-68
2022/05/17 13:13:17;;;;;;;2.35;1.50;;;29.10;71.30;;;;;;5044411;28;20308;-70
2022/05/17 13:15:47;;;;;;;1.45;1.40;;;29.10;71.40;;;;;;5043039;28;20246;-69
2022/05/17 13:18:15;;;;;;;1.48;1.38;;;29.20;71.60;;;;;;5041292;28;20238;-68
2022/05/17 13:20:41;;;;;;;2.63;1.30;;;29.20;72.40;;;;;;5037686;28;20231;-70
2022/05/17 13:23:10;;;;;;;3.05;1.63;;;29.20;70.10;;;;;;5042409;28;20606;-71
2022/05/17 13:25:41;;;;;;;1.35;1.27;;;28.90;68.60;;;;;;5040143;28;20261;-70